createdAt,value
2017-05-17T00:00:13.624Z,932.83
2017-05-17T00:00:41.887Z,932.83
2017-05-17T00:01:09.997Z,932.84
2017-05-17T00:01:38.256Z,932.84
2017-05-17T00:02:06.451Z,932.86
2017-05-17T00:02:34.767Z,932.83
2017-05-17T00:03:03.080Z,932.84
2017-05-17T00:03:31.089Z,932.84
2017-05-17T00:03:59.310Z,932.85
2017-05-17T00:04:27.553Z,932.85
2017-05-17T00:04:55.774Z,932.83
2017-05-17T00:05:23.932Z,932.78
2017-05-17T00:05:52.158Z,932.83
2017-05-17T00:06:20.280Z,932.81
2017-05-17T00:06:48.581Z,932.83
2017-05-17T00:07:16.719Z,932.86
2017-05-17T00:07:45.057Z,932.91
2017-05-17T00:08:13.357Z,932.89
2017-05-17T00:08:41.603Z,932.94
2017-05-17T00:09:09.892Z,932.91
2017-05-17T00:09:38.140Z,932.98
2017-05-17T00:10:06.464Z,932.97
2017-05-17T00:10:34.709Z,933.05
2017-05-17T00:11:02.837Z,933.04
2017-05-17T00:11:31.019Z,933.08
2017-05-17T00:11:59.302Z,933.07
2017-05-17T00:12:27.618Z,933.11
2017-05-17T00:12:55.854Z,933.13
2017-05-17T00:13:24.131Z,933.08
2017-05-17T00:13:52.385Z,933.15
2017-05-17T00:14:20.675Z,933.08
2017-05-17T00:14:48.953Z,933.08
2017-05-17T00:15:16.885Z,933.07
2017-05-17T00:15:45.090Z,933.06
2017-05-17T00:16:13.288Z,933.03
2017-05-17T00:16:41.591Z,933.01
2017-05-17T00:17:09.871Z,933.02
2017-05-17T00:17:38.117Z,933.01
2017-05-17T00:18:06.288Z,933.04
2017-05-17T00:18:34.336Z,932.98
2017-05-17T00:19:02.646Z,933.04
2017-05-17T00:19:30.897Z,933.06
2017-05-17T00:19:59.100Z,932.98
2017-05-17T00:20:27.329Z,933.01
2017-05-17T00:20:55.523Z,933.08
2017-05-17T00:21:23.652Z,933.04
2017-05-17T00:21:51.932Z,933
2017-05-17T00:22:20.055Z,933.06
2017-05-17T00:22:48.610Z,933
2017-05-17T00:23:17.243Z,932.98
2017-05-17T00:23:45.491Z,932.99
2017-05-17T00:24:13.778Z,932.99
2017-05-17T00:24:42.025Z,932.96
2017-05-17T00:25:10.326Z,932.96
2017-05-17T00:25:38.579Z,933.03
2017-05-17T00:26:06.850Z,932.96
2017-05-17T00:26:35.015Z,932.99
2017-05-17T00:27:03.281Z,932.93
2017-05-17T00:27:31.510Z,932.9
2017-05-17T00:27:59.829Z,932.93
2017-05-17T00:28:27.901Z,932.96
2017-05-17T00:28:56.242Z,932.89
2017-05-17T00:29:24.490Z,932.87
2017-05-17T00:29:52.806Z,932.85
2017-05-17T00:30:20.965Z,932.89
2017-05-17T00:30:49.205Z,932.86
2017-05-17T00:31:17.333Z,932.82
2017-05-17T00:31:45.545Z,932.98
2017-05-17T00:32:13.691Z,932.86
2017-05-17T00:32:41.874Z,932.93
2017-05-17T00:33:11.006Z,933
2017-05-17T00:33:39.339Z,932.91
2017-05-17T00:34:07.429Z,932.93
2017-05-17T00:34:35.627Z,932.91
2017-05-17T00:35:03.867Z,932.93
2017-05-17T00:35:32.102Z,932.93
2017-05-17T00:36:00.393Z,932.96
2017-05-17T00:36:28.696Z,932.99
2017-05-17T00:36:56.877Z,933.01
2017-05-17T00:37:25.138Z,932.93
2017-05-17T00:37:53.379Z,933.02
2017-05-17T00:38:21.658Z,932.93
2017-05-17T00:38:49.954Z,932.94
2017-05-17T00:39:18.241Z,932.98
2017-05-17T00:39:46.541Z,933
2017-05-17T00:40:14.830Z,932.98
2017-05-17T00:40:42.972Z,933
2017-05-17T00:41:10.879Z,933.03
2017-05-17T00:41:38.948Z,933.04
2017-05-17T00:42:07.095Z,933.02
2017-05-17T00:42:35.261Z,933.01
2017-05-17T00:43:03.597Z,933
2017-05-17T00:43:31.966Z,933.14
2017-05-17T00:44:00.233Z,933.03
2017-05-17T00:44:28.317Z,933.05
2017-05-17T00:44:56.472Z,933.04
2017-05-17T00:45:24.754Z,933.04
2017-05-17T00:45:52.880Z,933.08
2017-05-17T00:46:20.977Z,933.06
2017-05-17T00:46:49.119Z,933.05
2017-05-17T00:47:17.111Z,933.08
2017-05-17T00:47:45.172Z,933.1
2017-05-17T00:48:13.481Z,933.1
2017-05-17T00:48:41.734Z,933.09
2017-05-17T00:49:10.020Z,933.07
2017-05-17T00:49:38.171Z,933.07
2017-05-17T00:50:06.307Z,933.02
2017-05-17T00:50:34.526Z,933.08
2017-05-17T00:51:02.651Z,933.06
2017-05-17T00:51:30.805Z,933.12
2017-05-17T00:51:58.994Z,933.07
2017-05-17T00:52:27.208Z,933.04
2017-05-17T00:52:55.432Z,933.04
2017-05-17T00:53:23.828Z,933.03
2017-05-17T00:53:52.066Z,932.98
2017-05-17T00:54:20.322Z,932.98
2017-05-17T00:54:48.604Z,932.94
2017-05-17T00:55:16.857Z,932.98
2017-05-17T00:55:45.004Z,932.95
2017-05-17T00:56:13.069Z,932.92
2017-05-17T00:56:41.249Z,932.92
2017-05-17T00:57:09.503Z,933.08
2017-05-17T00:57:37.800Z,932.87
2017-05-17T00:58:05.982Z,932.94
2017-05-17T00:58:34.345Z,933
2017-05-17T00:59:02.631Z,932.99
2017-05-17T00:59:30.825Z,933.09
2017-05-17T00:59:58.938Z,933.01
2017-05-17T01:00:27.118Z,933.05
2017-05-17T01:00:55.230Z,933.09
2017-05-17T01:01:23.520Z,933.09
2017-05-17T01:01:51.703Z,933.08
2017-05-17T01:02:20.011Z,933.07
2017-05-17T01:02:48.221Z,933.09
2017-05-17T01:03:16.772Z,933.14
2017-05-17T01:03:45.080Z,933.13
2017-05-17T01:04:13.167Z,933.16
2017-05-17T01:04:41.399Z,933.14
2017-05-17T01:05:09.475Z,933.09
2017-05-17T01:05:37.718Z,933.13
2017-05-17T01:06:06.046Z,933.11
2017-05-17T01:06:34.352Z,933.13
2017-05-17T01:07:02.515Z,933.14
2017-05-17T01:07:30.684Z,933.16
2017-05-17T01:07:58.951Z,933.15
2017-05-17T01:08:27.273Z,933.18
2017-05-17T01:08:55.448Z,933.2
2017-05-17T01:09:23.733Z,933.22
2017-05-17T01:09:52.010Z,933.21
2017-05-17T01:11:03.191Z,933.23
2017-05-17T01:11:31.982Z,933.24
2017-05-17T01:12:00.270Z,933.28
2017-05-17T01:12:28.749Z,933.28
2017-05-17T01:12:57.135Z,933.29
2017-05-17T01:13:25.512Z,933.29
2017-05-17T01:13:53.685Z,933.33
2017-05-17T01:14:21.944Z,933.35
2017-05-17T01:14:50.186Z,933.35
2017-05-17T01:15:18.352Z,933.34
2017-05-17T01:15:46.632Z,933.33
2017-05-17T01:16:14.871Z,933.34
2017-05-17T01:16:43.142Z,933.37
2017-05-17T01:17:11.580Z,933.4
2017-05-17T01:17:39.591Z,933.36
2017-05-17T01:18:07.981Z,933.38
2017-05-17T01:18:36.215Z,933.33
2017-05-17T01:19:04.440Z,933.33
2017-05-17T01:19:32.594Z,933.35
2017-05-17T01:20:00.663Z,933.37
2017-05-17T01:20:28.902Z,933.4
2017-05-17T01:20:57.148Z,933.38
2017-05-17T01:21:25.488Z,933.39
2017-05-17T01:22:42.605Z,933.4
2017-05-17T01:23:10.860Z,933.36
2017-05-17T01:23:39.214Z,933.29
2017-05-17T01:24:07.467Z,933.3
2017-05-17T01:24:35.741Z,933.28
2017-05-17T01:25:04.005Z,933.3
2017-05-17T01:25:32.343Z,933.33
2017-05-17T01:26:00.470Z,933.33
2017-05-17T01:26:28.747Z,933.35
2017-05-17T01:26:57.185Z,933.32
2017-05-17T01:27:25.253Z,933.34
2017-05-17T01:27:53.577Z,933.38
2017-05-17T01:28:21.699Z,933.42
2017-05-17T01:28:49.962Z,933.41
2017-05-17T01:29:18.220Z,933.45
2017-05-17T01:29:46.485Z,933.4
2017-05-17T01:30:14.824Z,933.44
2017-05-17T01:30:43.197Z,933.44
2017-05-17T01:31:11.380Z,933.42
2017-05-17T01:31:39.565Z,933.4
2017-05-17T01:32:08.003Z,933.39
2017-05-17T01:32:36.141Z,933.35
2017-05-17T01:33:04.373Z,933.37
2017-05-17T01:33:32.825Z,933.34
2017-05-17T01:34:01.215Z,933.32
2017-05-17T01:34:29.377Z,933.28
2017-05-17T01:34:57.571Z,933.24
2017-05-17T01:35:25.690Z,933.29
2017-05-17T01:35:53.902Z,933.26
2017-05-17T01:36:22.135Z,933.33
2017-05-17T01:36:50.193Z,933.32
2017-05-17T01:37:18.485Z,933.37
2017-05-17T01:37:46.818Z,933.37
2017-05-17T01:38:15.208Z,933.36
2017-05-17T01:38:43.317Z,933.38
2017-05-17T01:39:11.495Z,933.43
2017-05-17T01:39:39.832Z,933.41
2017-05-17T01:40:08.024Z,933.42
2017-05-17T01:40:36.157Z,933.43
2017-05-17T01:41:04.442Z,933.42
2017-05-17T01:41:32.745Z,933.46
2017-05-17T01:42:01.032Z,933.38
2017-05-17T01:42:29.300Z,933.35
2017-05-17T01:42:57.466Z,933.32
2017-05-17T01:43:25.557Z,933.33
2017-05-17T01:43:53.909Z,933.26
2017-05-17T01:44:22.361Z,933.29
2017-05-17T01:44:50.505Z,933.25
2017-05-17T01:45:18.756Z,933.26
2017-05-17T01:45:47.203Z,933.28
2017-05-17T01:46:15.496Z,933.28
2017-05-17T01:46:43.658Z,933.25
2017-05-17T01:47:11.908Z,933.28
2017-05-17T01:47:40.072Z,933.28
2017-05-17T01:48:08.298Z,933.29
2017-05-17T01:48:36.451Z,933.3
2017-05-17T01:49:04.751Z,933.32
2017-05-17T01:49:33.148Z,933.34
2017-05-17T01:50:01.299Z,933.4
2017-05-17T01:50:29.599Z,933.35
2017-05-17T01:50:57.906Z,933.33
2017-05-17T01:51:26.066Z,933.33
2017-05-17T01:51:54.133Z,933.29
2017-05-17T01:52:22.758Z,933.39
2017-05-17T01:52:50.937Z,933.31
2017-05-17T01:53:19.219Z,933.26
2017-05-17T01:53:47.466Z,933.23
2017-05-17T01:54:16.059Z,933.23
2017-05-17T01:54:44.330Z,933.23
2017-05-17T01:55:12.626Z,933.23
2017-05-17T01:55:40.769Z,933.22
2017-05-17T01:56:09.036Z,933.25
2017-05-17T01:56:37.302Z,933.2
2017-05-17T01:57:06.016Z,933.2
2017-05-17T01:57:34.391Z,933.22
2017-05-17T01:58:02.560Z,933.24
2017-05-17T01:58:30.815Z,933.2
2017-05-17T01:58:58.907Z,933.24
2017-05-17T01:59:27.170Z,933.29
2017-05-17T01:59:55.488Z,933.29
2017-05-17T02:00:23.801Z,933.29
2017-05-17T02:00:52.046Z,933.3
2017-05-17T02:01:20.235Z,933.31
2017-05-17T02:01:48.419Z,933.27
2017-05-17T02:02:16.897Z,933.26
2017-05-17T02:02:44.864Z,933.26
2017-05-17T02:03:12.904Z,933.28
2017-05-17T02:03:40.900Z,933.31
2017-05-17T02:04:09.146Z,933.3
2017-05-17T02:04:37.410Z,933.33
2017-05-17T02:05:05.427Z,933.35
2017-05-17T02:05:33.970Z,933.3
2017-05-17T02:06:02.169Z,933.36
2017-05-17T02:06:30.302Z,933.34
2017-05-17T02:06:58.670Z,933.38
2017-05-17T02:07:26.957Z,933.34
2017-05-17T02:07:55.087Z,933.39
2017-05-17T02:08:23.386Z,933.37
2017-05-17T02:08:51.590Z,933.38
2017-05-17T02:09:19.865Z,933.37
2017-05-17T02:09:48.100Z,933.35
2017-05-17T02:10:16.189Z,933.4
2017-05-17T02:10:44.473Z,933.32
2017-05-17T02:11:12.734Z,933.44
2017-05-17T02:11:41.071Z,933.37
2017-05-17T02:12:09.326Z,933.4
2017-05-17T02:12:37.651Z,933.46
2017-05-17T02:13:05.958Z,933.41
2017-05-17T02:13:34.125Z,933.43
2017-05-17T02:14:02.345Z,933.45
2017-05-17T02:14:30.583Z,933.41
2017-05-17T02:14:59.034Z,933.46
2017-05-17T02:15:27.293Z,933.51
2017-05-17T02:15:55.557Z,933.47
2017-05-17T02:16:23.793Z,933.44
2017-05-17T02:16:52.086Z,933.48
2017-05-17T02:17:20.282Z,933.53
2017-05-17T02:17:48.580Z,933.49
2017-05-17T02:18:16.878Z,933.5
2017-05-17T02:18:45.193Z,933.51
2017-05-17T02:19:13.553Z,933.45
2017-05-17T02:19:41.618Z,933.46
2017-05-17T02:20:09.936Z,933.44
2017-05-17T02:20:38.082Z,933.47
2017-05-17T02:21:06.356Z,933.42
2017-05-17T02:21:34.538Z,933.43
2017-05-17T02:22:02.852Z,933.43
2017-05-17T02:22:31.130Z,933.39
2017-05-17T02:22:59.337Z,933.43
2017-05-17T02:23:27.444Z,933.44
2017-05-17T02:23:55.623Z,933.44
2017-05-17T02:24:23.918Z,933.48
2017-05-17T02:24:52.218Z,933.53
2017-05-17T02:25:20.495Z,933.51
2017-05-17T02:25:48.593Z,933.51
2017-05-17T02:26:16.822Z,933.51
2017-05-17T02:26:45.091Z,933.51
2017-05-17T02:27:13.374Z,933.51
2017-05-17T02:27:41.744Z,933.52
2017-05-17T02:28:10.110Z,933.52
2017-05-17T02:28:38.400Z,933.46
2017-05-17T02:29:06.696Z,933.48
2017-05-17T02:29:34.982Z,933.49
2017-05-17T02:30:03.318Z,933.46
2017-05-17T02:30:31.470Z,933.45
2017-05-17T02:30:59.476Z,933.44
2017-05-17T02:31:27.827Z,933.43
2017-05-17T02:31:56.018Z,933.45
2017-05-17T02:32:24.201Z,933.45
2017-05-17T02:32:52.357Z,933.47
2017-05-17T02:33:20.559Z,933.45
2017-05-17T02:33:48.703Z,933.46
2017-05-17T02:34:16.841Z,933.51
2017-05-17T02:34:45.144Z,933.53
2017-05-17T02:35:13.425Z,933.5
2017-05-17T02:35:41.676Z,933.53
2017-05-17T02:36:09.856Z,933.51
2017-05-17T02:36:38.314Z,933.45
2017-05-17T02:37:06.769Z,933.46
2017-05-17T02:37:34.974Z,933.44
2017-05-17T02:38:03.158Z,933.49
2017-05-17T02:38:31.227Z,933.46
2017-05-17T02:38:59.411Z,933.48
2017-05-17T02:39:27.431Z,933.45
2017-05-17T02:39:55.824Z,933.47
2017-05-17T02:40:23.978Z,933.43
2017-05-17T02:40:52.262Z,933.5
2017-05-17T02:41:20.558Z,933.47
2017-05-17T02:41:48.823Z,933.51
2017-05-17T02:42:17.052Z,933.52
2017-05-17T02:42:45.330Z,933.5
2017-05-17T02:43:13.437Z,933.47
2017-05-17T02:43:41.577Z,933.52
2017-05-17T02:44:09.725Z,933.53
2017-05-17T02:44:38.020Z,933.52
2017-05-17T02:45:06.370Z,933.5
2017-05-17T02:45:34.591Z,933.49
2017-05-17T02:46:02.805Z,933.54
2017-05-17T02:46:31.062Z,933.51
2017-05-17T02:46:59.188Z,933.48
2017-05-17T02:47:27.402Z,933.47
2017-05-17T02:47:55.645Z,933.44
2017-05-17T02:48:23.923Z,933.46
2017-05-17T02:48:52.092Z,933.43
2017-05-17T02:49:20.358Z,933.41
2017-05-17T02:49:48.502Z,933.43
2017-05-17T02:50:17.003Z,933.45
2017-05-17T02:50:45.200Z,933.45
2017-05-17T02:51:13.351Z,933.43
2017-05-17T02:51:41.369Z,933.45
2017-05-17T02:52:09.400Z,933.44
2017-05-17T02:52:37.595Z,933.46
2017-05-17T02:53:05.838Z,933.48
2017-05-17T02:53:34.275Z,933.48
2017-05-17T02:54:02.554Z,933.51
2017-05-17T02:54:31.204Z,933.49
2017-05-17T02:54:59.403Z,933.5
2017-05-17T02:55:27.893Z,933.52
2017-05-17T02:55:56.235Z,933.55
2017-05-17T02:56:24.981Z,933.51
2017-05-17T02:56:53.291Z,933.53
2017-05-17T02:57:21.855Z,933.51
2017-05-17T02:57:50.008Z,933.52
2017-05-17T02:58:18.157Z,933.49
2017-05-17T02:58:46.410Z,933.49
2017-05-17T02:59:14.473Z,933.48
2017-05-17T02:59:42.678Z,933.44
2017-05-17T03:00:11.030Z,933.42
2017-05-17T03:00:39.315Z,933.46
2017-05-17T03:01:07.464Z,933.42
2017-05-17T03:01:35.562Z,933.43
2017-05-17T03:02:03.592Z,933.4
2017-05-17T03:02:31.872Z,933.42
2017-05-17T03:02:59.896Z,933.45
2017-05-17T03:03:28.196Z,933.46
2017-05-17T03:03:56.439Z,933.44
2017-05-17T03:04:24.727Z,933.5
2017-05-17T03:04:52.941Z,933.46
2017-05-17T03:05:21.071Z,933.48
2017-05-17T03:05:49.156Z,933.48
2017-05-17T03:06:17.331Z,933.49
2017-05-17T03:06:45.624Z,933.49
2017-05-17T03:07:13.941Z,933.53
2017-05-17T03:07:42.068Z,933.51
2017-05-17T03:08:10.245Z,933.54
2017-05-17T03:08:38.353Z,933.49
2017-05-17T03:09:06.642Z,933.46
2017-05-17T03:09:34.934Z,933.5
2017-05-17T03:10:03.050Z,933.45
2017-05-17T03:10:31.454Z,933.45
2017-05-17T03:10:59.712Z,933.44
2017-05-17T03:11:27.781Z,933.43
2017-05-17T03:11:56.013Z,933.41
2017-05-17T03:12:24.279Z,933.44
2017-05-17T03:12:52.528Z,933.41
2017-05-17T03:13:20.815Z,933.39
2017-05-17T03:13:49.011Z,933.4
2017-05-17T03:14:17.268Z,933.44
2017-05-17T03:14:45.540Z,933.4
2017-05-17T03:15:13.797Z,933.39
2017-05-17T03:15:42.065Z,933.37
2017-05-17T03:16:10.245Z,933.4
2017-05-17T03:16:38.333Z,933.43
2017-05-17T03:17:06.527Z,933.4
2017-05-17T03:17:34.709Z,933.38
2017-05-17T03:18:02.809Z,933.44
2017-05-17T03:18:31.099Z,933.41
2017-05-17T03:18:59.174Z,933.38
2017-05-17T03:19:27.443Z,933.4
2017-05-17T03:19:55.721Z,933.35
2017-05-17T03:20:24.114Z,933.36
2017-05-17T03:20:52.276Z,933.41
2017-05-17T03:21:20.340Z,933.39
2017-05-17T03:21:48.480Z,933.36
2017-05-17T03:22:16.657Z,933.38
2017-05-17T03:22:44.910Z,933.33
2017-05-17T03:23:12.987Z,933.34
2017-05-17T03:23:41.190Z,933.34
2017-05-17T03:24:09.429Z,933.36
2017-05-17T03:24:37.676Z,933.36
2017-05-17T03:25:05.836Z,933.33
2017-05-17T03:25:34.023Z,933.36
2017-05-17T03:26:02.194Z,933.37
2017-05-17T03:26:30.427Z,933.38
2017-05-17T03:26:58.666Z,933.38
2017-05-17T03:27:26.715Z,933.36
2017-05-17T03:27:54.967Z,933.35
2017-05-17T03:28:23.255Z,933.39
2017-05-17T03:28:51.499Z,933.35
2017-05-17T03:29:19.596Z,933.36
2017-05-17T03:29:47.774Z,933.38
2017-05-17T03:30:16.055Z,933.36
2017-05-17T03:30:44.377Z,933.38
2017-05-17T03:31:12.598Z,933.33
2017-05-17T03:31:40.903Z,933.29
2017-05-17T03:32:09.069Z,933.25
2017-05-17T03:32:37.384Z,933.28
2017-05-17T03:33:05.496Z,933.24
2017-05-17T03:33:33.787Z,933.22
2017-05-17T03:34:02.035Z,933.22
2017-05-17T03:34:30.267Z,933.21
2017-05-17T03:34:58.501Z,933.18
2017-05-17T03:35:26.665Z,933.22
2017-05-17T03:35:55.054Z,933.22
2017-05-17T03:36:23.339Z,933.18
2017-05-17T03:36:51.658Z,933.22
2017-05-17T03:37:19.928Z,933.19
2017-05-17T03:37:47.874Z,933.19
2017-05-17T03:38:16.229Z,933.27
2017-05-17T03:38:44.264Z,933.22
2017-05-17T03:39:12.241Z,933.23
2017-05-17T03:39:40.529Z,933.27
2017-05-17T03:40:08.760Z,933.22
2017-05-17T03:40:36.942Z,933.23
2017-05-17T03:41:05.286Z,933.26
2017-05-17T03:41:33.574Z,933.22
2017-05-17T03:42:44.822Z,933.23
2017-05-17T03:43:13.253Z,933.22
2017-05-17T03:43:41.530Z,933.22
2017-05-17T03:44:09.797Z,933.23
2017-05-17T03:44:38.100Z,933.19
2017-05-17T03:45:06.525Z,933.17
2017-05-17T03:45:34.819Z,933.19
2017-05-17T03:46:03.289Z,933.16
2017-05-17T03:46:31.565Z,933.15
2017-05-17T03:46:59.873Z,933.14
2017-05-17T03:47:28.177Z,933.12
2017-05-17T03:47:56.474Z,933.14
2017-05-17T03:48:24.784Z,933.13
2017-05-17T03:48:53.054Z,933.09
2017-05-17T03:49:21.395Z,933.1
2017-05-17T03:49:49.734Z,933.07
2017-05-17T03:50:17.992Z,933.11
2017-05-17T03:50:46.235Z,933.11
2017-05-17T03:51:14.532Z,933.1
2017-05-17T03:51:42.870Z,933.12
2017-05-17T03:52:11.207Z,933.13
2017-05-17T03:52:39.547Z,933.15
2017-05-17T03:53:07.677Z,933.1
2017-05-17T03:53:35.968Z,933.16
2017-05-17T03:54:04.186Z,933.18
2017-05-17T03:54:32.482Z,933.18
2017-05-17T03:55:00.783Z,933.2
2017-05-17T03:55:29.109Z,933.18
2017-05-17T03:55:57.618Z,933.17
2017-05-17T03:56:25.816Z,933.23
2017-05-17T03:56:54.116Z,933.15
2017-05-17T03:57:22.479Z,933.18
2017-05-17T03:57:50.671Z,933.18
2017-05-17T03:58:19.011Z,933.18
2017-05-17T03:58:47.231Z,933.2
2017-05-17T03:59:15.451Z,933.2
2017-05-17T03:59:43.770Z,933.17
2017-05-17T04:00:12.032Z,933.15
2017-05-17T04:00:40.326Z,933.15
2017-05-17T04:01:08.617Z,933.17
2017-05-17T04:01:36.715Z,933.19
2017-05-17T04:02:04.957Z,933.14
2017-05-17T04:02:33.113Z,933.16
2017-05-17T04:03:01.375Z,933.17
2017-05-17T04:03:29.510Z,933.14
2017-05-17T04:03:57.796Z,933.13
2017-05-17T04:04:25.999Z,933.21
2017-05-17T04:04:54.278Z,933.22
2017-05-17T04:05:22.495Z,933.19
2017-05-17T04:05:50.778Z,933.2
2017-05-17T04:06:19.114Z,933.18
2017-05-17T04:06:47.399Z,933.19
2017-05-17T04:07:15.621Z,933.22
2017-05-17T04:07:43.880Z,933.21
2017-05-17T04:08:12.187Z,933.22
2017-05-17T04:08:40.395Z,933.22
2017-05-17T04:09:08.503Z,933.22
2017-05-17T04:09:36.605Z,933.21
2017-05-17T04:10:04.869Z,933.27
2017-05-17T04:10:33.257Z,933.2
2017-05-17T04:11:01.592Z,933.24
2017-05-17T04:11:30.037Z,933.23
2017-05-17T04:11:58.276Z,933.21
2017-05-17T04:12:26.485Z,933.18
2017-05-17T04:12:54.734Z,933.18
2017-05-17T04:13:23.059Z,933.22
2017-05-17T04:13:51.381Z,933.25
2017-05-17T04:14:19.672Z,933.28
2017-05-17T04:14:47.947Z,933.21
2017-05-17T04:15:16.178Z,933.3
2017-05-17T04:15:44.419Z,933.26
2017-05-17T04:16:12.618Z,933.22
2017-05-17T04:16:40.943Z,933.23
2017-05-17T04:17:09.188Z,933.22
2017-05-17T04:17:37.552Z,933.23
2017-05-17T04:18:05.866Z,933.21
2017-05-17T04:18:34.094Z,933.19
2017-05-17T04:19:02.392Z,933.16
2017-05-17T04:19:30.717Z,933.17
2017-05-17T04:19:58.825Z,933.19
2017-05-17T04:20:27.045Z,933.17
2017-05-17T04:20:55.237Z,933.16
2017-05-17T04:21:23.655Z,933.17
2017-05-17T04:21:51.954Z,933.17
2017-05-17T04:22:20.284Z,933.16
2017-05-17T04:22:48.522Z,933.17
2017-05-17T04:23:16.808Z,933.16
2017-05-17T04:23:45.112Z,933.14
2017-05-17T04:24:13.393Z,933.15
2017-05-17T04:24:41.703Z,933.17
2017-05-17T04:25:09.999Z,933.15
2017-05-17T04:25:38.133Z,933.15
2017-05-17T04:26:06.459Z,933.16
2017-05-17T04:26:34.812Z,933.18
2017-05-17T04:27:03.075Z,933.19
2017-05-17T04:27:31.294Z,933.17
2017-05-17T04:27:59.560Z,933.2
2017-05-17T04:28:27.717Z,933.18
2017-05-17T04:28:56.032Z,933.2
2017-05-17T04:29:24.266Z,933.22
2017-05-17T04:29:52.443Z,933.2
2017-05-17T04:30:20.728Z,933.19
2017-05-17T04:30:49.034Z,933.19
2017-05-17T04:31:17.287Z,933.19
2017-05-17T04:31:45.557Z,933.15
2017-05-17T04:32:13.748Z,933.14
2017-05-17T04:32:42.060Z,933.13
2017-05-17T04:33:10.416Z,933.16
2017-05-17T04:33:38.737Z,933.12
2017-05-17T04:34:06.969Z,933.14
2017-05-17T04:34:35.217Z,933.14
2017-05-17T04:35:03.546Z,933.1
2017-05-17T04:35:31.842Z,933.12
2017-05-17T04:36:00.158Z,933.08
2017-05-17T04:36:28.472Z,933.11
2017-05-17T04:36:56.884Z,933.06
2017-05-17T04:37:25.174Z,933.08
2017-05-17T04:37:53.341Z,933.06
2017-05-17T04:38:21.672Z,933.03
2017-05-17T04:38:50.037Z,933.09
2017-05-17T04:39:18.358Z,933.08
2017-05-17T04:39:46.654Z,933.08
2017-05-17T04:40:14.930Z,933.08
2017-05-17T04:40:43.244Z,933.04
2017-05-17T04:41:11.447Z,933.11
2017-05-17T04:41:39.631Z,933.09
2017-05-17T04:42:07.964Z,933.07
2017-05-17T04:42:36.256Z,933.06
2017-05-17T04:43:04.455Z,933.08
2017-05-17T04:43:32.623Z,933.06
2017-05-17T04:44:00.938Z,933.06
2017-05-17T04:44:29.149Z,933.1
2017-05-17T04:44:57.385Z,933.06
2017-05-17T04:45:25.709Z,933.05
2017-05-17T04:45:54.027Z,933.04
2017-05-17T04:46:22.254Z,933.04
2017-05-17T04:46:50.618Z,933.06
2017-05-17T04:47:18.858Z,932.97
2017-05-17T04:47:46.959Z,932.95
2017-05-17T04:48:15.238Z,932.95
2017-05-17T04:48:43.489Z,932.94
2017-05-17T04:49:11.731Z,932.96
2017-05-17T04:49:39.944Z,932.93
2017-05-17T04:50:08.285Z,932.93
2017-05-17T04:50:36.540Z,932.92
2017-05-17T04:51:04.755Z,932.93
2017-05-17T04:51:32.911Z,932.94
2017-05-17T04:52:01.369Z,932.94
2017-05-17T04:52:29.539Z,932.98
2017-05-17T04:52:57.665Z,932.96
2017-05-17T04:53:25.964Z,932.94
2017-05-17T04:53:54.276Z,932.98
2017-05-17T04:54:22.495Z,932.97
2017-05-17T04:54:50.744Z,932.96
2017-05-17T04:55:19.021Z,932.93
2017-05-17T04:55:47.345Z,932.99
2017-05-17T04:56:15.699Z,932.96
2017-05-17T04:56:44.000Z,932.94
2017-05-17T04:57:12.411Z,932.95
2017-05-17T04:57:40.694Z,932.97
2017-05-17T04:58:08.984Z,932.92
2017-05-17T04:58:37.244Z,932.99
2017-05-17T04:59:05.572Z,932.94
2017-05-17T04:59:33.821Z,932.97
2017-05-17T05:00:01.963Z,932.93
2017-05-17T05:00:30.191Z,932.97
2017-05-17T05:00:58.464Z,932.91
2017-05-17T05:01:26.743Z,932.95
2017-05-17T05:01:54.993Z,932.9
2017-05-17T05:02:23.435Z,932.95
2017-05-17T05:02:51.760Z,932.91
2017-05-17T05:03:20.093Z,932.92
2017-05-17T05:03:48.391Z,932.89
2017-05-17T05:04:16.655Z,932.88
2017-05-17T05:04:44.786Z,932.86
2017-05-17T05:05:13.049Z,932.84
2017-05-17T05:05:41.380Z,932.82
2017-05-17T05:06:09.575Z,932.79
2017-05-17T05:06:37.820Z,932.76
2017-05-17T05:07:06.131Z,932.76
2017-05-17T05:07:34.506Z,932.75
2017-05-17T05:08:02.816Z,932.75
2017-05-17T05:08:31.066Z,932.74
2017-05-17T05:08:59.356Z,932.73
2017-05-17T05:09:27.678Z,932.78
2017-05-17T05:09:55.880Z,932.73
2017-05-17T05:10:24.247Z,932.73
2017-05-17T05:10:52.381Z,932.74
2017-05-17T05:11:20.732Z,932.71
2017-05-17T05:11:48.959Z,932.74
2017-05-17T05:12:17.412Z,932.7
2017-05-17T05:12:45.555Z,932.7
2017-05-17T05:13:13.791Z,932.73
2017-05-17T05:13:42.029Z,932.73
2017-05-17T05:14:10.359Z,932.69
2017-05-17T05:14:38.769Z,932.7
2017-05-17T05:15:06.921Z,932.75
2017-05-17T05:15:35.180Z,932.69
2017-05-17T05:16:03.399Z,932.71
2017-05-17T05:16:31.520Z,932.68
2017-05-17T05:16:59.873Z,932.67
2017-05-17T05:17:28.295Z,932.65
2017-05-17T05:17:56.609Z,932.66
2017-05-17T05:18:24.743Z,932.65
2017-05-17T05:18:53.081Z,932.64
2017-05-17T05:19:21.385Z,932.68
2017-05-17T05:19:49.522Z,932.66
2017-05-17T05:20:17.711Z,932.66
2017-05-17T05:20:46.221Z,932.64
2017-05-17T05:21:14.468Z,932.66
2017-05-17T05:21:42.811Z,932.62
2017-05-17T05:22:11.082Z,932.65
2017-05-17T05:22:39.345Z,932.58
2017-05-17T05:23:07.628Z,932.62
2017-05-17T05:23:35.866Z,932.64
2017-05-17T05:24:04.038Z,932.58
2017-05-17T05:24:32.370Z,932.59
2017-05-17T05:25:00.474Z,932.61
2017-05-17T05:25:28.821Z,932.62
2017-05-17T05:25:57.052Z,932.62
2017-05-17T05:26:25.139Z,932.59
2017-05-17T05:26:53.466Z,932.6
2017-05-17T05:27:21.714Z,932.53
2017-05-17T05:27:50.053Z,932.61
2017-05-17T05:28:18.546Z,932.57
2017-05-17T05:28:46.913Z,932.57
2017-05-17T05:29:15.201Z,932.58
2017-05-17T05:29:43.459Z,932.56
2017-05-17T05:30:11.716Z,932.57
2017-05-17T05:30:39.972Z,932.52
2017-05-17T05:31:08.198Z,932.55
2017-05-17T05:31:36.507Z,932.54
2017-05-17T05:32:04.725Z,932.52
2017-05-17T05:32:32.869Z,932.51
2017-05-17T05:33:01.363Z,932.51
2017-05-17T05:33:29.600Z,932.45
2017-05-17T05:33:57.816Z,932.44
2017-05-17T05:34:26.076Z,932.48
2017-05-17T05:34:54.274Z,932.47
2017-05-17T05:35:22.556Z,932.46
2017-05-17T05:35:50.790Z,932.46
2017-05-17T05:36:18.777Z,932.51
2017-05-17T05:36:47.106Z,932.49
2017-05-17T05:37:15.450Z,932.37
2017-05-17T05:37:43.836Z,932.42
2017-05-17T05:38:12.110Z,932.41
2017-05-17T05:38:40.314Z,932.39
2017-05-17T05:39:08.623Z,932.39
2017-05-17T05:39:36.939Z,932.4
2017-05-17T05:40:05.089Z,932.38
2017-05-17T05:40:33.416Z,932.33
2017-05-17T05:41:01.558Z,932.36
2017-05-17T05:41:29.852Z,932.26
2017-05-17T05:41:58.117Z,932.36
2017-05-17T05:42:26.397Z,932.37
2017-05-17T05:42:54.689Z,932.27
2017-05-17T05:43:23.012Z,932.3
2017-05-17T05:43:51.360Z,932.34
2017-05-17T05:44:19.666Z,932.3
2017-05-17T05:44:47.946Z,932.31
2017-05-17T05:45:16.244Z,932.33
2017-05-17T05:45:44.525Z,932.33
2017-05-17T05:46:12.900Z,932.33
2017-05-17T05:46:41.102Z,932.39
2017-05-17T05:47:09.346Z,932.36
2017-05-17T05:47:37.584Z,932.33
2017-05-17T05:48:05.951Z,932.37
2017-05-17T05:48:34.278Z,932.37
2017-05-17T05:49:02.565Z,932.35
2017-05-17T05:49:30.896Z,932.37
2017-05-17T05:49:59.138Z,932.32
2017-05-17T05:50:27.303Z,932.37
2017-05-17T05:50:55.535Z,932.34
2017-05-17T05:51:23.852Z,932.34
2017-05-17T05:51:52.173Z,932.34
2017-05-17T05:52:20.386Z,932.35
2017-05-17T05:52:50.108Z,932.32
2017-05-17T05:53:18.665Z,932.33
2017-05-17T05:53:46.937Z,932.31
2017-05-17T05:54:15.179Z,932.34
2017-05-17T05:54:43.498Z,932.32
2017-05-17T05:55:11.729Z,932.29
2017-05-17T05:55:39.888Z,932.33